createdAt,value
2022-10-05T00:00:14.241Z,9.60
2022-10-05T00:02:41.131Z,9.60
2022-10-05T00:05:17.724Z,9.50
2022-10-05T00:07:44.410Z,9.50
2022-10-05T00:10:14.970Z,10.30
2022-10-05T00:12:43.776Z,9.40
2022-10-05T00:15:11.767Z,9.50
2022-10-05T00:17:38.414Z,9.40
2022-10-05T00:20:20.376Z,9.40
2022-10-05T00:22:47.179Z,9.30
2022-10-05T00:25:16.184Z,9.30
2022-10-05T00:27:43.371Z,9.20
2022-10-05T00:30:20.836Z,9.20
2022-10-05T00:32:47.639Z,9.00
2022-10-05T00:35:14.822Z,9.00
2022-10-05T00:37:41.850Z,8.90
2022-10-05T00:40:20.248Z,8.80
2022-10-05T00:42:49.959Z,8.70
2022-10-05T00:45:20.619Z,8.60
2022-10-05T00:47:59.616Z,8.60
2022-10-05T00:50:26.355Z,8.50
2022-10-05T00:52:55.872Z,8.60
2022-10-05T00:55:45.025Z,8.50
2022-10-05T00:58:11.663Z,8.50
2022-10-05T01:01:01.623Z,8.50
2022-10-05T01:03:28.395Z,8.50
2022-10-05T01:06:07.032Z,8.50
2022-10-05T01:08:42.887Z,8.50
2022-10-05T01:11:13.597Z,8.50
2022-10-05T01:13:48.850Z,8.60
2022-10-05T01:16:15.563Z,8.40
2022-10-05T01:19:05.355Z,8.40
2022-10-05T01:21:37.535Z,8.30
2022-10-05T01:24:24.128Z,8.30
2022-10-05T01:26:53.860Z,8.30
2022-10-05T01:29:32.965Z,8.30
2022-10-05T01:31:59.682Z,8.30
2022-10-05T01:34:38.125Z,8.30
2022-10-05T01:37:43.238Z,8.30
2022-10-05T01:40:18.654Z,8.30
2022-10-05T01:43:02.259Z,8.30
2022-10-05T01:45:31.773Z,9.40
2022-10-05T01:48:03.088Z,8.30
2022-10-05T01:50:56.781Z,8.30
2022-10-05T01:53:26.362Z,8.20
2022-10-05T01:55:56.687Z,8.10
2022-10-05T01:58:31.189Z,8.10
2022-10-05T02:01:16.511Z,8.00
2022-10-05T02:03:55.406Z,7.90
2022-10-05T02:06:23.992Z,7.80
2022-10-05T02:08:53.993Z,7.80
2022-10-05T02:11:20.854Z,7.70
2022-10-05T02:13:50.455Z,7.60
2022-10-05T02:16:20.632Z,7.50
2022-10-05T02:18:50.595Z,8.90
2022-10-05T02:21:18.130Z,7.40
2022-10-05T02:23:45.872Z,7.50
2022-10-05T02:26:13.217Z,7.50
2022-10-05T02:28:43.489Z,7.50
2022-10-05T02:31:10.417Z,7.50
2022-10-05T02:33:37.299Z,7.60
2022-10-05T02:36:11.388Z,7.60
2022-10-05T02:38:45.298Z,7.50
2022-10-05T02:41:17.974Z,7.50
2022-10-05T02:43:56.899Z,7.40
2022-10-05T02:46:29.400Z,7.40
2022-10-05T02:48:56.016Z,7.40
2022-10-05T02:51:25.721Z,7.50
2022-10-05T02:54:11.433Z,7.50
2022-10-05T02:56:53.433Z,7.50
2022-10-05T02:59:22.905Z,7.50
2022-10-05T03:01:51.956Z,7.40
2022-10-05T03:04:18.637Z,7.40
2022-10-05T03:06:50.500Z,7.50
2022-10-05T03:09:19.532Z,7.50
2022-10-05T03:11:46.271Z,7.60
2022-10-05T03:14:13.378Z,7.50
2022-10-05T03:16:43.028Z,7.50
2022-10-05T03:19:10.354Z,7.50
2022-10-05T03:21:55.525Z,7.50
2022-10-05T03:24:35.459Z,7.60
2022-10-05T03:27:02.218Z,7.70
2022-10-05T03:29:28.938Z,7.80
2022-10-05T03:32:18.614Z,7.70
2022-10-05T03:34:45.310Z,7.70
2022-10-05T03:37:25.407Z,7.60
2022-10-05T03:39:57.676Z,7.50
2022-10-05T03:42:24.249Z,7.30
2022-10-05T03:45:09.691Z,7.30
2022-10-05T03:47:41.651Z,7.30
2022-10-05T03:50:14.353Z,9.70
2022-10-05T03:52:59.921Z,7.30
2022-10-05T03:55:34.230Z,7.40
2022-10-05T03:58:06.422Z,7.30
2022-10-05T04:00:34.159Z,7.30
2022-10-05T04:03:04.050Z,7.20
2022-10-05T04:05:32.860Z,7.20
2022-10-05T04:08:07.178Z,7.10
2022-10-05T04:10:43.649Z,7.10
2022-10-05T04:13:14.289Z,7.00
2022-10-05T04:15:46.302Z,7.10
2022-10-05T04:18:27.147Z,7.10
2022-10-05T04:20:59.953Z,7.20
2022-10-05T04:23:29.459Z,7.20
2022-10-05T04:26:08.013Z,7.20
2022-10-05T04:28:34.803Z,7.10
2022-10-05T04:31:03.931Z,7.10
2022-10-05T04:33:31.612Z,7.50
2022-10-05T04:36:10.110Z,7.00
2022-10-05T04:38:39.489Z,7.00
2022-10-05T04:41:09.297Z,7.00
2022-10-05T04:43:48.291Z,7.00
2022-10-05T04:46:21.454Z,7.00
2022-10-05T04:49:06.430Z,7.00
2022-10-05T04:51:51.115Z,7.00
2022-10-05T04:54:36.807Z,6.90
2022-10-05T04:57:07.020Z,6.80
2022-10-05T04:59:39.783Z,6.70
2022-10-05T05:02:16.482Z,6.70
2022-10-05T05:04:59.451Z,6.60
2022-10-05T05:07:31.878Z,6.50
2022-10-05T05:10:01.523Z,6.50
2022-10-05T05:12:31.125Z,6.40
2022-10-05T05:14:57.726Z,6.40
2022-10-05T05:17:24.302Z,6.40
2022-10-05T05:19:57.073Z,6.50
2022-10-05T05:22:42.535Z,6.40
2022-10-05T05:25:20.177Z,6.40
2022-10-05T05:27:49.399Z,6.40
2022-10-05T05:30:23.763Z,6.50
2022-10-05T05:33:09.335Z,6.50
2022-10-05T05:35:45.583Z,6.60
2022-10-05T05:38:30.964Z,6.70
2022-10-05T05:41:08.957Z,6.70
2022-10-05T05:43:46.060Z,6.80
2022-10-05T05:46:18.301Z,6.90
2022-10-05T05:48:46.704Z,7.00
2022-10-05T05:51:19.188Z,7.00
2022-10-05T05:53:48.055Z,6.90
2022-10-05T05:56:16.594Z,6.80
2022-10-05T05:58:53.962Z,6.80
2022-10-05T06:01:36.973Z,6.70
2022-10-05T06:04:27.883Z,6.90
2022-10-05T06:06:55.365Z,7.00
2022-10-05T06:09:31.118Z,7.10
2022-10-05T06:12:02.327Z,7.10
2022-10-05T06:14:32.173Z,7.20
2022-10-05T06:17:07.485Z,7.30
2022-10-05T06:19:34.754Z,7.40
2022-10-05T06:22:07.751Z,7.50
2022-10-05T06:24:34.438Z,7.50
2022-10-05T06:27:07.328Z,8.70
2022-10-05T06:29:40.080Z,7.60
2022-10-05T06:32:11.272Z,7.70
2022-10-05T06:34:48.677Z,7.70
2022-10-05T06:37:20.281Z,7.80
2022-10-05T06:39:50.043Z,7.90
2022-10-05T06:42:32.095Z,7.90
2022-10-05T06:45:22.232Z,7.90
2022-10-05T06:47:54.976Z,8.00
2022-10-05T06:50:30.035Z,8.10
2022-10-05T06:53:08.607Z,8.20
2022-10-05T06:55:53.687Z,8.30
2022-10-05T06:58:35.705Z,8.40
2022-10-05T07:01:12.610Z,8.50
2022-10-05T07:04:00.544Z,8.60
2022-10-05T07:06:36.276Z,8.70
2022-10-05T07:09:27.221Z,8.80
2022-10-05T07:12:05.388Z,8.80
2022-10-05T07:14:32.505Z,8.90
2022-10-05T07:17:09.782Z,9.00
2022-10-05T07:19:55.773Z,9.10
2022-10-05T07:22:27.401Z,9.20
2022-10-05T07:24:58.093Z,9.30
2022-10-05T07:27:27.325Z,9.40
2022-10-05T07:30:02.123Z,9.50
2022-10-05T07:32:36.698Z,9.70
2022-10-05T07:35:06.395Z,9.80
2022-10-05T07:37:57.112Z,9.90
2022-10-05T07:40:29.648Z,10.00
2022-10-05T07:43:57.568Z,10.10
2022-10-05T07:46:31.288Z,10.20
2022-10-05T07:48:57.921Z,10.40
2022-10-05T07:51:29.661Z,10.80
2022-10-05T07:54:02.406Z,10.60
2022-10-05T07:56:32.981Z,10.60
2022-10-05T07:59:18.478Z,12.20
2022-10-05T08:01:48.467Z,10.80
2022-10-05T08:04:15.132Z,10.80
2022-10-05T08:07:03.163Z,10.90
2022-10-05T08:09:32.769Z,11.00
2022-10-05T08:11:59.890Z,11.10
2022-10-05T08:14:39.726Z,11.10
2022-10-05T08:17:11.455Z,11.20
2022-10-05T08:19:48.460Z,11.30
2022-10-05T08:22:22.795Z,11.40
2022-10-05T08:24:53.822Z,11.50
2022-10-05T08:27:32.450Z,12.20
2022-10-05T08:30:01.362Z,11.70
2022-10-05T08:32:48.450Z,11.90
2022-10-05T08:35:35.136Z,11.90
2022-10-05T08:38:04.047Z,12.00
2022-10-05T08:40:36.716Z,12.20
2022-10-05T08:43:16.485Z,12.30
2022-10-05T08:46:02.102Z,12.40
2022-10-05T08:48:31.906Z,12.50
2022-10-05T08:51:16.832Z,12.70
2022-10-05T08:53:46.515Z,12.80
2022-10-05T08:56:21.486Z,12.90
2022-10-05T08:59:22.375Z,13.00
2022-10-05T09:01:55.521Z,13.10
2022-10-05T09:04:29.930Z,13.30
2022-10-05T09:07:02.672Z,13.40
2022-10-05T09:09:48.525Z,13.50
2022-10-05T09:12:21.205Z,13.70
2022-10-05T09:15:24.960Z,13.80
2022-10-05T09:17:52.301Z,14.00
2022-10-05T09:20:28.572Z,15.20
2022-10-05T09:23:16.799Z,14.40
2022-10-05T09:25:50.737Z,14.50
2022-10-05T09:28:17.510Z,14.60
2022-10-05T09:30:47.317Z,14.80
2022-10-05T09:33:28.854Z,14.90
2022-10-05T09:36:07.547Z,15.00
2022-10-05T09:38:34.136Z,15.20
2022-10-05T09:41:19.709Z,15.30
2022-10-05T09:43:49.300Z,15.50
2022-10-05T09:46:22.045Z,15.60
2022-10-05T09:49:03.888Z,15.70
2022-10-05T09:51:36.678Z,15.80
2022-10-05T09:54:14.766Z,15.90
2022-10-05T09:56:56.815Z,16.00
2022-10-05T09:59:43.972Z,16.10
2022-10-05T10:02:15.294Z,16.30
2022-10-05T10:05:06.475Z,16.40
2022-10-05T10:08:08.422Z,16.50
2022-10-05T10:10:38.888Z,16.60
2022-10-05T10:13:40.861Z,16.70
2022-10-05T10:16:07.485Z,16.80
2022-10-05T10:18:54.614Z,18.80
2022-10-05T10:21:39.690Z,17.00
2022-10-05T10:24:14.723Z,17.10
2022-10-05T10:26:53.267Z,17.30
2022-10-05T10:29:39.778Z,17.40
2022-10-05T10:32:06.424Z,17.60
2022-10-05T10:34:45.231Z,18.30
2022-10-05T10:37:30.830Z,17.90
2022-10-05T10:40:00.193Z,18.10
2022-10-05T10:42:42.056Z,18.30
2022-10-05T10:45:08.639Z,18.50
2022-10-05T10:47:44.625Z,18.50
2022-10-05T10:50:24.721Z,18.70
2022-10-05T10:53:10.433Z,18.70
2022-10-05T10:55:55.734Z,18.90
2022-10-05T10:58:46.994Z,18.90
2022-10-05T11:01:32.524Z,19.00
2022-10-05T11:04:17.757Z,19.10
2022-10-05T11:06:59.557Z,19.10
2022-10-05T11:09:35.970Z,19.20
2022-10-05T11:12:08.320Z,19.20
2022-10-05T11:14:53.814Z,19.30
2022-10-05T11:17:23.553Z,19.30
2022-10-05T11:20:04.808Z,19.40
2022-10-05T11:22:45.911Z,19.50
2022-10-05T11:25:31.177Z,19.50
2022-10-05T11:27:57.818Z,19.60
2022-10-05T11:30:35.176Z,19.70
2022-10-05T11:33:13.754Z,19.70
2022-10-05T11:35:47.756Z,19.70
2022-10-05T11:38:14.347Z,19.80
2022-10-05T11:40:43.936Z,19.80
2022-10-05T11:43:25.873Z,19.90
2022-10-05T11:45:58.996Z,20.00
2022-10-05T11:48:40.760Z,20.10
2022-10-05T11:51:28.761Z,20.20
2022-10-05T11:54:07.959Z,20.40
2022-10-05T11:56:36.328Z,20.40
2022-10-05T11:59:05.894Z,20.50
2022-10-05T12:01:41.749Z,20.60
2022-10-05T12:04:08.569Z,20.70
2022-10-05T12:06:35.233Z,20.80
2022-10-05T12:09:01.872Z,20.90
2022-10-05T12:11:43.709Z,20.90
2022-10-05T12:14:13.353Z,20.90
2022-10-05T12:16:46.168Z,21.00
2022-10-05T12:19:16.169Z,21.00
2022-10-05T12:21:52.154Z,21.00
2022-10-05T12:24:26.635Z,21.00
2022-10-05T12:27:05.776Z,21.00
2022-10-05T12:29:40.858Z,21.10
2022-10-05T12:32:13.417Z,21.00
2022-10-05T12:34:49.294Z,21.10
2022-10-05T12:37:31.257Z,21.00
2022-10-05T12:40:03.128Z,21.00
2022-10-05T12:42:51.809Z,21.00
2022-10-05T12:45:33.881Z,20.90
2022-10-05T12:48:23.939Z,20.80
2022-10-05T12:50:54.338Z,20.80
2022-10-05T12:53:39.499Z,22.60
2022-10-05T12:56:10.190Z,20.80
2022-10-05T12:58:42.930Z,20.80
2022-10-05T13:01:24.905Z,20.80
2022-10-05T13:03:54.722Z,20.80
2022-10-05T13:06:29.621Z,20.80
2022-10-05T13:09:08.538Z,20.80
2022-10-05T13:11:41.230Z,20.80
2022-10-05T13:14:10.844Z,20.80
2022-10-05T13:16:37.637Z,20.80
2022-10-05T13:19:09.334Z,20.80
2022-10-05T13:21:55.256Z,20.80
2022-10-05T13:24:29.117Z,20.80
2022-10-05T13:27:04.912Z,20.80
2022-10-05T13:29:39.734Z,20.90
2022-10-05T13:32:12.613Z,20.80
2022-10-05T13:34:41.695Z,20.80
2022-10-05T13:37:15.367Z,20.80
2022-10-05T13:39:42.151Z,20.90
2022-10-05T13:42:21.501Z,20.80
2022-10-05T13:44:50.906Z,20.90
2022-10-05T13:47:22.781Z,20.90
2022-10-05T13:50:05.601Z,20.90
2022-10-05T13:52:44.522Z,20.90
2022-10-05T13:55:16.804Z,20.90
2022-10-05T13:57:45.333Z,20.90
2022-10-05T14:00:18.791Z,20.90
2022-10-05T14:02:50.826Z,20.90
2022-10-05T14:05:22.421Z,20.90
2022-10-05T14:07:54.016Z,21.50
2022-10-05T14:10:40.228Z,21.00
2022-10-05T14:13:22.103Z,21.10
2022-10-05T14:15:59.778Z,21.10
2022-10-05T14:18:27.959Z,20.50
2022-10-05T14:20:58.133Z,21.10
2022-10-05T14:23:26.905Z,21.10
2022-10-05T14:25:54.303Z,21.10
2022-10-05T14:28:25.395Z,21.10
2022-10-05T14:30:59.032Z,21.00
2022-10-05T14:33:30.593Z,21.10
2022-10-05T14:35:57.873Z,21.00
2022-10-05T14:38:26.359Z,21.00
2022-10-05T14:41:22.461Z,21.60
2022-10-05T14:43:50.330Z,20.90
2022-10-05T14:46:18.852Z,20.90
2022-10-05T14:48:48.432Z,20.80
2022-10-05T14:51:25.661Z,20.70
2022-10-05T14:54:02.365Z,20.80
2022-10-05T14:56:48.012Z,20.80
2022-10-05T14:59:33.401Z,20.80
2022-10-05T15:02:20.306Z,20.80
2022-10-05T15:05:07.248Z,20.70
2022-10-05T15:07:42.512Z,20.70
2022-10-05T15:10:29.430Z,20.60
2022-10-05T15:12:58.490Z,20.50
2022-10-05T15:15:47.217Z,20.30
2022-10-05T15:18:19.726Z,20.20
2022-10-05T15:20:53.695Z,20.10
2022-10-05T15:23:27.067Z,19.90
2022-10-05T15:25:56.686Z,19.80
2022-10-05T15:28:33.822Z,19.70
2022-10-05T15:31:04.904Z,19.60
2022-10-05T15:33:34.356Z,19.60
2022-10-05T15:36:04.625Z,19.50
2022-10-05T15:38:33.741Z,19.60
2022-10-05T15:41:01.206Z,19.60
2022-10-05T15:43:38.171Z,19.50
2022-10-05T15:46:07.978Z,19.50
2022-10-05T15:48:48.352Z,19.40
2022-10-05T15:51:24.202Z,19.40
2022-10-05T15:54:41.707Z,19.40
2022-10-05T15:57:14.703Z,19.40
2022-10-05T15:59:51.538Z,19.40
2022-10-05T16:02:22.441Z,19.40
2022-10-05T16:05:16.836Z,21.10
2022-10-05T16:08:04.232Z,19.20
2022-10-05T16:10:33.641Z,19.10
2022-10-05T16:13:06.319Z,19.00
2022-10-05T16:15:50.118Z,18.90
2022-10-05T16:18:35.428Z,18.80
2022-10-05T16:21:23.629Z,18.70
2022-10-05T16:23:50.194Z,18.60
2022-10-05T16:26:16.775Z,19.40
2022-10-05T16:28:52.990Z,16.60
2022-10-05T16:31:37.431Z,18.30
2022-10-05T16:34:20.049Z,18.30
2022-10-05T16:37:12.736Z,18.10
2022-10-05T16:40:02.625Z,18.00
2022-10-05T16:42:35.038Z,17.90
2022-10-05T16:45:06.828Z,17.80
2022-10-05T16:47:39.648Z,17.70
2022-10-05T16:50:18.173Z,17.60
2022-10-05T16:52:46.756Z,17.50
2022-10-05T16:55:17.496Z,17.40
2022-10-05T16:57:48.547Z,18.90
2022-10-05T17:00:20.260Z,17.20
2022-10-05T17:02:46.976Z,17.10
2022-10-05T17:05:13.622Z,17.10
2022-10-05T17:07:40.962Z,17.00
2022-10-05T17:10:15.551Z,18.40
2022-10-05T17:12:56.423Z,16.80
2022-10-05T17:15:29.537Z,16.80
2022-10-05T17:18:02.298Z,17.70
2022-10-05T17:20:42.885Z,16.60
2022-10-05T17:23:31.122Z,16.50
2022-10-05T17:26:33.187Z,16.40
2022-10-05T17:29:14.022Z,16.40
2022-10-05T17:31:59.927Z,16.30
2022-10-05T17:34:29.856Z,16.20
2022-10-05T17:36:59.647Z,16.10
2022-10-05T17:39:45.136Z,16.10
2022-10-05T17:42:30.111Z,16.00
2022-10-05T17:45:14.881Z,16.00
2022-10-05T17:48:00.499Z,15.90
2022-10-05T17:50:56.616Z,15.90
2022-10-05T17:53:53.419Z,15.90
2022-10-05T17:56:21.692Z,15.80
2022-10-05T17:58:54.390Z,16.10
2022-10-05T18:01:32.492Z,15.80
2022-10-05T18:04:11.359Z,15.70
2022-10-05T18:06:47.647Z,15.70
2022-10-05T18:09:16.823Z,15.60
2022-10-05T18:11:44.591Z,15.60
2022-10-05T18:14:27.517Z,15.50
2022-10-05T18:16:57.162Z,15.50
2022-10-05T18:19:24.040Z,15.40
2022-10-05T18:22:00.149Z,15.50
2022-10-05T18:24:36.381Z,15.30
2022-10-05T18:27:07.300Z,15.20
2022-10-05T18:30:05.669Z,15.20
2022-10-05T18:33:11.214Z,15.10
2022-10-05T18:35:45.694Z,15.10
2022-10-05T18:38:28.097Z,15.00
2022-10-05T18:41:07.303Z,15.00
2022-10-05T18:43:43.667Z,15.00
2022-10-05T18:46:13.411Z,14.90
2022-10-05T18:48:49.240Z,14.90
2022-10-05T18:51:30.980Z,14.90
2022-10-05T18:54:03.391Z,14.80
2022-10-05T18:56:48.869Z,14.70
2022-10-05T18:59:24.161Z,14.70
2022-10-05T19:02:03.591Z,14.70
2022-10-05T19:04:30.344Z,14.60
2022-10-05T19:07:17.804Z,14.60
2022-10-05T19:09:47.572Z,14.60
2022-10-05T19:12:20.498Z,14.60
2022-10-05T19:14:47.165Z,14.60
2022-10-05T19:17:23.112Z,14.70
2022-10-05T19:20:10.045Z,14.60
2022-10-05T19:22:52.729Z,14.60
2022-10-05T19:25:38.208Z,14.50
2022-10-05T19:28:07.956Z,14.50
2022-10-05T19:30:44.001Z,14.40
2022-10-05T19:33:10.699Z,14.30
2022-10-05T19:35:43.510Z,14.30
2022-10-05T19:38:31.741Z,14.20
2022-10-05T19:41:13.564Z,14.20
2022-10-05T19:43:59.122Z,14.10
2022-10-05T19:46:43.007Z,14.10
2022-10-05T19:49:10.650Z,14.10
2022-10-05T19:51:48.761Z,14.00
2022-10-05T19:54:25.205Z,14.00
2022-10-05T19:56:53.037Z,14.00
2022-10-05T19:59:21.344Z,14.10
2022-10-05T20:01:50.069Z,16.10
2022-10-05T20:04:32.295Z,14.20
2022-10-05T20:06:59.385Z,14.10
2022-10-05T20:09:26.124Z,14.10
2022-10-05T20:11:53.526Z,14.00
2022-10-05T20:14:21.508Z,14.00
2022-10-05T20:17:06.903Z,14.00
2022-10-05T20:19:52.349Z,14.00
2022-10-05T20:22:35.352Z,14.00
2022-10-05T20:25:04.032Z,13.90
2022-10-05T20:27:33.827Z,13.90
2022-10-05T20:30:02.143Z,13.90
2022-10-05T20:32:30.791Z,13.90
2022-10-05T20:34:57.633Z,13.90
2022-10-05T20:37:24.680Z,15.20
2022-10-05T20:39:51.525Z,13.90
2022-10-05T20:42:19.310Z,13.90
2022-10-05T20:44:46.050Z,15.70
2022-10-05T20:47:13.795Z,13.80
2022-10-05T20:49:41.370Z,13.90
2022-10-05T20:52:10.202Z,14.90
2022-10-05T20:54:37.621Z,13.90
2022-10-05T20:57:06.689Z,13.90
2022-10-05T20:59:34.050Z,14.90
2022-10-05T21:02:01.631Z,13.90
2022-10-05T21:04:36.292Z,13.80
2022-10-05T21:07:07.297Z,13.70
2022-10-05T21:09:34.022Z,13.60
2022-10-05T21:12:00.762Z,13.50
2022-10-05T21:14:28.351Z,13.50
2022-10-05T21:16:55.161Z,14.50
2022-10-05T21:19:22.311Z,13.40
2022-10-05T21:21:49.053Z,13.40
2022-10-05T21:24:15.786Z,13.50
2022-10-05T21:26:43.045Z,13.30
2022-10-05T21:29:12.733Z,14.10
2022-10-05T21:31:40.093Z,13.30
2022-10-05T21:34:07.295Z,13.20
2022-10-05T21:36:34.083Z,13.30
2022-10-05T21:39:00.846Z,13.20
2022-10-05T21:41:27.690Z,13.30
2022-10-05T21:43:54.451Z,13.20
2022-10-05T21:46:22.554Z,13.20
2022-10-05T21:48:49.648Z,13.20
2022-10-05T21:51:18.659Z,14.60
2022-10-05T21:53:53.067Z,14.00
2022-10-05T21:56:20.690Z,13.10
2022-10-05T21:58:47.782Z,13.80
2022-10-05T22:01:17.790Z,13.10
2022-10-05T22:03:46.971Z,13.00
2022-10-05T22:06:13.645Z,13.00
2022-10-05T22:08:40.399Z,13.00
2022-10-05T22:11:11.373Z,14.40
2022-10-05T22:13:45.738Z,12.90
2022-10-05T22:16:13.241Z,12.80
2022-10-05T22:18:40.131Z,14.20
2022-10-05T22:21:07.822Z,14.70
2022-10-05T22:23:35.786Z,12.60
2022-10-05T22:26:03.322Z,12.60
2022-10-05T22:28:31.488Z,12.50
2022-10-05T22:30:59.558Z,12.50
2022-10-05T22:33:26.301Z,12.50
2022-10-05T22:35:53.473Z,13.00
2022-10-05T22:38:20.092Z,12.50
2022-10-05T22:40:47.034Z,13.00
2022-10-05T22:43:13.753Z,12.40
2022-10-05T22:45:40.675Z,12.40
2022-10-05T22:48:07.375Z,12.40
2022-10-05T22:50:34.199Z,14.30
2022-10-05T22:53:00.906Z,12.70
2022-10-05T22:55:27.499Z,12.30
2022-10-05T22:57:54.191Z,12.50
2022-10-05T23:00:27.576Z,12.30
2022-10-05T23:02:54.537Z,12.30
2022-10-05T23:05:21.197Z,13.00
2022-10-05T23:07:47.923Z,13.90
2022-10-05T23:10:16.483Z,12.30
2022-10-05T23:12:43.423Z,12.20
2022-10-05T23:15:10.735Z,13.20
2022-10-05T23:17:39.304Z,12.30
2022-10-05T23:20:07.273Z,12.30
2022-10-05T23:22:37.579Z,12.20
2022-10-05T23:25:05.282Z,12.20
2022-10-05T23:27:39.203Z,12.10
2022-10-05T23:30:06.834Z,12.10
2022-10-05T23:32:44.037Z,12.00
2022-10-05T23:35:11.820Z,12.00
2022-10-05T23:37:39.473Z,12.00
2022-10-05T23:40:07.174Z,12.00
2022-10-05T23:42:33.813Z,12.00
2022-10-05T23:45:00.507Z,13.10
2022-10-05T23:47:27.207Z,13.30
2022-10-05T23:49:55.456Z,12.00
2022-10-05T23:52:22.120Z,12.60
2022-10-05T23:54:48.819Z,13.40
2022-10-05T23:57:16.852Z,12.70
2022-10-05T23:59:43.816Z,11.90
